sensor_id;sensor_type;location;lat;lon;timestamp;P1;durP1;ratioP1;P2;durP2;ratioP2
65033;SDS011;51601;51.356;12.458;2023-11-19T00:01:41;7.17;;;3.37;;
65033;SDS011;51601;51.356;12.458;2023-11-19T00:05:59;6.47;;;2.40;;
65033;SDS011;51601;51.356;12.458;2023-11-19T00:10:20;6.00;;;2.30;;
65033;SDS011;51601;51.356;12.458;2023-11-19T00:14:38;5.03;;;2.03;;
65033;SDS011;51601;51.356;12.458;2023-11-19T00:18:56;7.00;;;2.70;;
65033;SDS011;51601;51.356;12.458;2023-11-19T00:23:15;5.53;;;2.25;;
65033;SDS011;51601;51.356;12.458;2023-11-19T00:27:34;6.87;;;2.57;;
65033;SDS011;51601;51.356;12.458;2023-11-19T00:31:54;5.57;;;2.40;;
65033;SDS011;51601;51.356;12.458;2023-11-19T00:36:12;5.53;;;2.47;;
65033;SDS011;51601;51.356;12.458;2023-11-19T00:40:30;6.07;;;2.05;;
65033;SDS011;51601;51.356;12.458;2023-11-19T00:44:50;4.50;;;1.90;;
65033;SDS011;51601;51.356;12.458;2023-11-19T00:49:09;4.32;;;1.60;;
65033;SDS011;51601;51.356;12.458;2023-11-19T00:53:27;4.65;;;1.70;;
65033;SDS011;51601;51.356;12.458;2023-11-19T00:57:45;6.17;;;1.97;;
65033;SDS011;51601;51.356;12.458;2023-11-19T01:02:05;3.25;;;1.30;;
65033;SDS011;51601;51.356;12.458;2023-11-19T01:06:27;4.88;;;1.85;;
65033;SDS011;51601;51.356;12.458;2023-11-19T01:10:48;3.33;;;1.27;;
65033;SDS011;51601;51.356;12.458;2023-11-19T01:15:07;5.53;;;1.45;;
65033;SDS011;51601;51.356;12.458;2023-11-19T01:19:26;5.25;;;1.85;;
65033;SDS011;51601;51.356;12.458;2023-11-19T01:23:46;4.13;;;1.48;;
65033;SDS011;51601;51.356;12.458;2023-11-19T01:28:04;3.10;;;1.10;;
65033;SDS011;51601;51.356;12.458;2023-11-19T01:32:22;4.13;;;1.45;;
65033;SDS011;51601;51.356;12.458;2023-11-19T01:36:42;3.42;;;1.38;;
65033;SDS011;51601;51.356;12.458;2023-11-19T01:41:02;4.60;;;1.80;;
65033;SDS011;51601;51.356;12.458;2023-11-19T01:45:26;3.53;;;1.42;;
65033;SDS011;51601;51.356;12.458;2023-11-19T01:49:47;2.45;;;0.95;;
65033;SDS011;51601;51.356;12.458;2023-11-19T01:54:06;3.00;;;1.30;;
65033;SDS011;51601;51.356;12.458;2023-11-19T01:58:26;3.35;;;1.20;;
65033;SDS011;51601;51.356;12.458;2023-11-19T02:02:47;3.30;;;1.30;;
65033;SDS011;51601;51.356;12.458;2023-11-19T02:07:06;4.35;;;1.50;;
65033;SDS011;51601;51.356;12.458;2023-11-19T02:11:28;2.23;;;0.90;;
65033;SDS011;51601;51.356;12.458;2023-11-19T02:15:48;3.58;;;1.30;;
65033;SDS011;51601;51.356;12.458;2023-11-19T02:20:07;2.45;;;1.10;;
65033;SDS011;51601;51.356;12.458;2023-11-19T02:24:31;4.40;;;1.77;;
65033;SDS011;51601;51.356;12.458;2023-11-19T02:28:50;4.95;;;1.92;;
65033;SDS011;51601;51.356;12.458;2023-11-19T02:33:10;4.00;;;1.50;;
65033;SDS011;51601;51.356;12.458;2023-11-19T02:37:28;4.87;;;2.07;;
65033;SDS011;51601;51.356;12.458;2023-11-19T02:41:46;4.97;;;1.88;;
65033;SDS011;51601;51.356;12.458;2023-11-19T02:46:09;4.72;;;1.90;;
65033;SDS011;51601;51.356;12.458;2023-11-19T02:50:32;4.45;;;1.67;;
65033;SDS011;51601;51.356;12.458;2023-11-19T02:54:49;5.17;;;2.20;;
65033;SDS011;51601;51.356;12.458;2023-11-19T02:59:08;6.03;;;2.60;;
65033;SDS011;51601;51.356;12.458;2023-11-19T03:03:36;6.00;;;2.38;;
65033;SDS011;51601;51.356;12.458;2023-11-19T03:07:56;5.87;;;1.97;;
65033;SDS011;51601;51.356;12.458;2023-11-19T03:12:14;5.53;;;2.00;;
65033;SDS011;51601;51.356;12.458;2023-11-19T03:16:32;5.18;;;2.60;;
65033;SDS011;51601;51.356;12.458;2023-11-19T03:20:52;3.67;;;1.53;;
65033;SDS011;51601;51.356;12.458;2023-11-19T03:25:12;7.20;;;2.47;;
65033;SDS011;51601;51.356;12.458;2023-11-19T03:29:30;5.07;;;1.77;;
65033;SDS011;51601;51.356;12.458;2023-11-19T03:33:48;4.90;;;1.95;;
65033;SDS011;51601;51.356;12.458;2023-11-19T03:38:08;3.83;;;1.60;;
65033;SDS011;51601;51.356;12.458;2023-11-19T03:42:24;4.65;;;1.98;;
65033;SDS011;51601;51.356;12.458;2023-11-19T03:46:42;5.18;;;2.03;;
65033;SDS011;51601;51.356;12.458;2023-11-19T03:51:01;6.13;;;2.20;;
65033;SDS011;51601;51.356;12.458;2023-11-19T03:55:23;4.05;;;1.70;;
65033;SDS011;51601;51.356;12.458;2023-11-19T03:59:43;4.00;;;1.55;;
65033;SDS011;51601;51.356;12.458;2023-11-19T04:04:16;4.07;;;1.60;;
65033;SDS011;51601;51.356;12.458;2023-11-19T04:08:50;3.95;;;1.70;;
65033;SDS011;51601;51.356;12.458;2023-11-19T04:13:05;4.88;;;1.85;;
65033;SDS011;51601;51.356;12.458;2023-11-19T04:17:25;4.25;;;1.80;;
65033;SDS011;51601;51.356;12.458;2023-11-19T04:21:42;5.47;;;1.80;;
65033;SDS011;51601;51.356;12.458;2023-11-19T04:26:01;2.58;;;1.10;;
65033;SDS011;51601;51.356;12.458;2023-11-19T04:30:23;3.80;;;1.58;;
65033;SDS011;51601;51.356;12.458;2023-11-19T04:34:43;6.90;;;2.00;;
65033;SDS011;51601;51.356;12.458;2023-11-19T04:39:04;3.78;;;1.30;;
65033;SDS011;51601;51.356;12.458;2023-11-19T04:43:25;2.85;;;1.15;;
65033;SDS011;51601;51.356;12.458;2023-11-19T04:47:48;4.80;;;1.30;;
65033;SDS011;51601;51.356;12.458;2023-11-19T04:52:07;3.08;;;1.23;;
65033;SDS011;51601;51.356;12.458;2023-11-19T04:56:28;4.07;;;1.60;;
65033;SDS011;51601;51.356;12.458;2023-11-19T05:00:47;3.35;;;1.20;;
65033;SDS011;51601;51.356;12.458;2023-11-19T05:05:06;5.80;;;1.20;;
65033;SDS011;51601;51.356;12.458;2023-11-19T05:09:26;3.35;;;1.25;;
65033;SDS011;51601;51.356;12.458;2023-11-19T05:13:44;2.83;;;1.00;;
65033;SDS011;51601;51.356;12.458;2023-11-19T05:18:05;3.40;;;1.10;;
65033;SDS011;51601;51.356;12.458;2023-11-19T05:22:27;3.10;;;1.00;;
65033;SDS011;51601;51.356;12.458;2023-11-19T05:26:47;3.47;;;1.35;;
65033;SDS011;51601;51.356;12.458;2023-11-19T05:31:08;2.73;;;1.10;;
65033;SDS011;51601;51.356;12.458;2023-11-19T05:35:26;3.95;;;1.30;;
65033;SDS011;51601;51.356;12.458;2023-11-19T05:39:46;2.40;;;1.08;;
65033;SDS011;51601;51.356;12.458;2023-11-19T05:44:04;2.15;;;0.90;;
65033;SDS011;51601;51.356;12.458;2023-11-19T05:48:25;4.17;;;1.30;;
65033;SDS011;51601;51.356;12.458;2023-11-19T05:52:45;2.50;;;0.95;;
65033;SDS011;51601;51.356;12.458;2023-11-19T05:57:05;3.60;;;1.38;;
65033;SDS011;51601;51.356;12.458;2023-11-19T06:01:27;3.10;;;1.17;;
65033;SDS011;51601;51.356;12.458;2023-11-19T06:05:45;4.00;;;1.10;;
65033;SDS011;51601;51.356;12.458;2023-11-19T06:10:03;4.00;;;1.23;;
65033;SDS011;51601;51.356;12.458;2023-11-19T06:14:26;3.40;;;1.20;;
65033;SDS011;51601;51.356;12.458;2023-11-19T06:18:45;3.03;;;1.02;;
65033;SDS011;51601;51.356;12.458;2023-11-19T06:23:04;3.55;;;1.23;;
65033;SDS011;51601;51.356;12.458;2023-11-19T06:27:21;2.97;;;1.00;;
65033;SDS011;51601;51.356;12.458;2023-11-19T06:31:41;2.77;;;0.90;;
65033;SDS011;51601;51.356;12.458;2023-11-19T06:36:01;1.73;;;0.80;;
65033;SDS011;51601;51.356;12.458;2023-11-19T06:40:19;1.75;;;0.70;;
65033;SDS011;51601;51.356;12.458;2023-11-19T06:44:37;1.97;;;0.80;;
65033;SDS011;51601;51.356;12.458;2023-11-19T06:48:56;1.88;;;0.70;;
65033;SDS011;51601;51.356;12.458;2023-11-19T06:53:19;2.60;;;1.10;;
65033;SDS011;51601;51.356;12.458;2023-11-19T06:57:37;2.93;;;1.00;;
65033;SDS011;51601;51.356;12.458;2023-11-19T07:01:55;2.63;;;0.90;;
65033;SDS011;51601;51.356;12.458;2023-11-19T07:06:15;2.25;;;0.90;;
65033;SDS011;51601;51.356;12.458;2023-11-19T07:10:34;4.60;;;1.20;;
65033;SDS011;51601;51.356;12.458;2023-11-19T07:14:52;1.87;;;0.70;;
65033;SDS011;51601;51.356;12.458;2023-11-19T07:19:10;2.38;;;0.93;;
65033;SDS011;51601;51.356;12.458;2023-11-19T07:23:30;4.50;;;1.10;;
65033;SDS011;51601;51.356;12.458;2023-11-19T07:27:51;4.23;;;1.30;;
65033;SDS011;51601;51.356;12.458;2023-11-19T07:32:08;3.00;;;0.82;;
65033;SDS011;51601;51.356;12.458;2023-11-19T07:36:26;2.80;;;1.00;;
65033;SDS011;51601;51.356;12.458;2023-11-19T07:40:45;1.83;;;0.90;;
65033;SDS011;51601;51.356;12.458;2023-11-19T07:45:09;3.63;;;1.17;;
65033;SDS011;51601;51.356;12.458;2023-11-19T07:49:27;4.35;;;1.20;;
65033;SDS011;51601;51.356;12.458;2023-11-19T07:53:44;6.38;;;1.60;;
65033;SDS011;51601;51.356;12.458;2023-11-19T07:58:04;2.47;;;1.00;;
65033;SDS011;51601;51.356;12.458;2023-11-19T08:02:21;3.45;;;1.13;;
65033;SDS011;51601;51.356;12.458;2023-11-19T08:06:38;4.90;;;1.40;;
65033;SDS011;51601;51.356;12.458;2023-11-19T08:10:57;5.40;;;1.30;;
65033;SDS011;51601;51.356;12.458;2023-11-19T08:15:16;4.43;;;1.30;;
65033;SDS011;51601;51.356;12.458;2023-11-19T08:19:48;2.85;;;1.10;;
65033;SDS011;51601;51.356;12.458;2023-11-19T08:24:06;4.83;;;1.20;;
65033;SDS011;51601;51.356;12.458;2023-11-19T08:28:26;2.17;;;0.90;;
65033;SDS011;51601;51.356;12.458;2023-11-19T08:32:45;3.83;;;1.40;;
65033;SDS011;51601;51.356;12.458;2023-11-19T08:37:05;4.65;;;1.40;;
65033;SDS011;51601;51.356;12.458;2023-11-19T08:41:24;5.10;;;1.50;;
65033;SDS011;51601;51.356;12.458;2023-11-19T08:45:41;4.10;;;1.50;;
65033;SDS011;51601;51.356;12.458;2023-11-19T08:50:01;4.38;;;1.42;;
65033;SDS011;51601;51.356;12.458;2023-11-19T08:54:21;4.43;;;1.40;;
65033;SDS011;51601;51.356;12.458;2023-11-19T08:58:39;4.32;;;1.20;;
65033;SDS011;51601;51.356;12.458;2023-11-19T09:02:57;3.97;;;1.38;;
65033;SDS011;51601;51.356;12.458;2023-11-19T09:07:17;5.00;;;1.60;;
65033;SDS011;51601;51.356;12.458;2023-11-19T09:11:39;4.30;;;1.40;;
65033;SDS011;51601;51.356;12.458;2023-11-19T09:15:57;16.38;;;5.85;;
65033;SDS011;51601;51.356;12.458;2023-11-19T09:20:18;6.78;;;2.47;;
65033;SDS011;51601;51.356;12.458;2023-11-19T09:24:38;6.10;;;1.50;;
65033;SDS011;51601;51.356;12.458;2023-11-19T09:28:54;5.68;;;1.60;;
65033;SDS011;51601;51.356;12.458;2023-11-19T09:33:13;4.60;;;1.50;;
65033;SDS011;51601;51.356;12.458;2023-11-19T09:37:31;5.47;;;2.03;;
65033;SDS011;51601;51.356;12.458;2023-11-19T09:41:50;5.15;;;1.60;;
65033;SDS011;51601;51.356;12.458;2023-11-19T09:46:10;5.70;;;1.60;;
65033;SDS011;51601;51.356;12.458;2023-11-19T09:50:31;5.50;;;1.70;;
65033;SDS011;51601;51.356;12.458;2023-11-19T09:54:49;5.75;;;1.83;;
65033;SDS011;51601;51.356;12.458;2023-11-19T09:59:08;7.78;;;1.90;;
65033;SDS011;51601;51.356;12.458;2023-11-19T10:03:29;7.07;;;1.92;;
65033;SDS011;51601;51.356;12.458;2023-11-19T10:07:49;6.47;;;2.00;;
65033;SDS011;51601;51.356;12.458;2023-11-19T10:12:07;7.22;;;2.60;;
65033;SDS011;51601;51.356;12.458;2023-11-19T10:16:29;12.60;;;3.28;;
65033;SDS011;51601;51.356;12.458;2023-11-19T10:20:49;8.97;;;2.67;;
65033;SDS011;51601;51.356;12.458;2023-11-19T10:25:15;8.07;;;2.15;;
65033;SDS011;51601;51.356;12.458;2023-11-19T10:29:43;8.55;;;2.50;;
65033;SDS011;51601;51.356;12.458;2023-11-19T10:34:04;6.23;;;1.87;;
65033;SDS011;51601;51.356;12.458;2023-11-19T10:38:51;6.55;;;2.05;;
65033;SDS011;51601;51.356;12.458;2023-11-19T10:43:09;6.50;;;2.50;;
65033;SDS011;51601;51.356;12.458;2023-11-19T10:47:27;6.53;;;2.22;;
65033;SDS011;51601;51.356;12.458;2023-11-19T10:51:53;6.80;;;2.10;;
65033;SDS011;51601;51.356;12.458;2023-11-19T10:56:16;7.97;;;1.98;;
65033;SDS011;51601;51.356;12.458;2023-11-19T11:00:37;5.18;;;1.92;;
65033;SDS011;51601;51.356;12.458;2023-11-19T11:04:58;5.33;;;1.70;;
65033;SDS011;51601;51.356;12.458;2023-11-19T11:09:20;6.57;;;1.30;;
65033;SDS011;51601;51.356;12.458;2023-11-19T11:13:40;5.07;;;1.20;;
65033;SDS011;51601;51.356;12.458;2023-11-19T11:18:01;6.63;;;1.60;;
65033;SDS011;51601;51.356;12.458;2023-11-19T11:22:19;8.02;;;1.80;;
65033;SDS011;51601;51.356;12.458;2023-11-19T11:26:52;7.15;;;1.70;;
65033;SDS011;51601;51.356;12.458;2023-11-19T11:31:23;6.65;;;1.80;;
65033;SDS011;51601;51.356;12.458;2023-11-19T11:35:53;7.27;;;1.40;;
65033;SDS011;51601;51.356;12.458;2023-11-19T11:40:17;8.10;;;1.90;;
65033;SDS011;51601;51.356;12.458;2023-11-19T11:49:25;9.17;;;2.37;;
65033;SDS011;51601;51.356;12.458;2023-11-19T11:53:45;9.98;;;2.00;;
65033;SDS011;51601;51.356;12.458;2023-11-19T11:58:07;6.72;;;1.70;;
65033;SDS011;51601;51.356;12.458;2023-11-19T12:02:26;9.77;;;2.03;;
65033;SDS011;51601;51.356;12.458;2023-11-19T12:06:58;9.13;;;2.63;;
65033;SDS011;51601;51.356;12.458;2023-11-19T12:11:23;11.55;;;2.20;;
65033;SDS011;51601;51.356;12.458;2023-11-19T12:20:27;11.33;;;2.50;;
65033;SDS011;51601;51.356;12.458;2023-11-19T12:24:53;7.40;;;2.17;;
65033;SDS011;51601;51.356;12.458;2023-11-19T12:29:12;12.75;;;2.92;;
65033;SDS011;51601;51.356;12.458;2023-11-19T12:33:30;11.20;;;2.10;;
65033;SDS011;51601;51.356;12.458;2023-11-19T12:37:51;10.43;;;2.13;;
65033;SDS011;51601;51.356;12.458;2023-11-19T12:42:09;10.45;;;2.10;;
65033;SDS011;51601;51.356;12.458;2023-11-19T12:46:30;9.70;;;2.43;;
65033;SDS011;51601;51.356;12.458;2023-11-19T12:50:51;9.63;;;2.08;;
65033;SDS011;51601;51.356;12.458;2023-11-19T12:59:57;11.95;;;2.50;;
65033;SDS011;51601;51.356;12.458;2023-11-19T13:04:16;11.73;;;1.80;;
65033;SDS011;51601;51.356;12.458;2023-11-19T13:08:38;8.37;;;2.10;;
65033;SDS011;51601;51.356;12.458;2023-11-19T13:13:02;10.68;;;2.58;;
65033;SDS011;51601;51.356;12.458;2023-11-19T13:17:24;7.25;;;1.35;;
65033;SDS011;51601;51.356;12.458;2023-11-19T13:21:46;11.03;;;2.23;;
65033;SDS011;51601;51.356;12.458;2023-11-19T13:26:05;8.30;;;1.77;;
65033;SDS011;51601;51.356;12.458;2023-11-19T13:30:26;9.27;;;1.90;;
65033;SDS011;51601;51.356;12.458;2023-11-19T13:34:48;9.87;;;2.07;;
65033;SDS011;51601;51.356;12.458;2023-11-19T13:39:08;10.32;;;2.05;;
65033;SDS011;51601;51.356;12.458;2023-11-19T13:43:29;9.10;;;1.60;;
65033;SDS011;51601;51.356;12.458;2023-11-19T13:47:47;9.85;;;2.03;;
65033;SDS011;51601;51.356;12.458;2023-11-19T13:52:10;10.73;;;2.10;;
65033;SDS011;51601;51.356;12.458;2023-11-19T13:56:29;10.02;;;1.80;;
65033;SDS011;51601;51.356;12.458;2023-11-19T14:00:47;10.43;;;1.90;;
65033;SDS011;51601;51.356;12.458;2023-11-19T14:05:08;7.50;;;1.93;;
65033;SDS011;51601;51.356;12.458;2023-11-19T14:09:32;10.02;;;1.90;;
65033;SDS011;51601;51.356;12.458;2023-11-19T14:13:51;8.50;;;1.73;;
65033;SDS011;51601;51.356;12.458;2023-11-19T14:18:09;11.33;;;2.07;;
65033;SDS011;51601;51.356;12.458;2023-11-19T14:22:30;8.30;;;1.45;;
65033;SDS011;51601;51.356;12.458;2023-11-19T14:26:52;8.18;;;1.88;;
65033;SDS011;51601;51.356;12.458;2023-11-19T14:31:15;9.57;;;2.20;;
65033;SDS011;51601;51.356;12.458;2023-11-19T14:35:34;10.17;;;1.97;;
65033;SDS011;51601;51.356;12.458;2023-11-19T14:39:54;13.32;;;1.88;;
65033;SDS011;51601;51.356;12.458;2023-11-19T14:44:14;10.75;;;1.55;;
65033;SDS011;51601;51.356;12.458;2023-11-19T14:48:34;13.80;;;2.10;;
65033;SDS011;51601;51.356;12.458;2023-11-19T14:52:52;14.38;;;1.80;;
65033;SDS011;51601;51.356;12.458;2023-11-19T14:57:10;11.48;;;2.03;;
65033;SDS011;51601;51.356;12.458;2023-11-19T15:01:32;11.27;;;2.13;;
65033;SDS011;51601;51.356;12.458;2023-11-19T15:05:52;10.40;;;2.40;;
65033;SDS011;51601;51.356;12.458;2023-11-19T15:10:11;9.07;;;2.15;;
65033;SDS011;51601;51.356;12.458;2023-11-19T15:14:28;12.70;;;2.50;;
65033;SDS011;51601;51.356;12.458;2023-11-19T15:18:48;16.57;;;2.43;;
65033;SDS011;51601;51.356;12.458;2023-11-19T15:23:10;10.80;;;2.33;;
65033;SDS011;51601;51.356;12.458;2023-11-19T15:27:28;10.13;;;2.63;;
65033;SDS011;51601;51.356;12.458;2023-11-19T15:31:46;12.40;;;2.30;;
65033;SDS011;51601;51.356;12.458;2023-11-19T15:36:07;8.95;;;2.10;;
65033;SDS011;51601;51.356;12.458;2023-11-19T15:40:26;11.48;;;2.53;;
65033;SDS011;51601;51.356;12.458;2023-11-19T15:44:47;12.60;;;2.73;;
65033;SDS011;51601;51.356;12.458;2023-11-19T15:49:05;10.30;;;2.42;;
65033;SDS011;51601;51.356;12.458;2023-11-19T15:53:24;12.88;;;2.83;;
65033;SDS011;51601;51.356;12.458;2023-11-19T15:57:44;14.43;;;2.88;;
65033;SDS011;51601;51.356;12.458;2023-11-19T16:02:02;7.70;;;2.23;;
65033;SDS011;51601;51.356;12.458;2023-11-19T16:06:23;13.65;;;2.00;;
65033;SDS011;51601;51.356;12.458;2023-11-19T16:10:43;12.05;;;2.88;;
65033;SDS011;51601;51.356;12.458;2023-11-19T16:15:03;11.33;;;2.50;;
65033;SDS011;51601;51.356;12.458;2023-11-19T16:19:21;12.88;;;2.55;;
65033;SDS011;51601;51.356;12.458;2023-11-19T16:23:41;12.07;;;2.05;;
65033;SDS011;51601;51.356;12.458;2023-11-19T16:28:04;9.63;;;2.00;;
65033;SDS011;51601;51.356;12.458;2023-11-19T16:32:24;13.73;;;2.45;;
65033;SDS011;51601;51.356;12.458;2023-11-19T16:36:42;10.68;;;2.20;;
65033;SDS011;51601;51.356;12.458;2023-11-19T16:41:00;13.88;;;2.10;;
65033;SDS011;51601;51.356;12.458;2023-11-19T16:45:23;8.70;;;1.70;;
65033;SDS011;51601;51.356;12.458;2023-11-19T16:49:42;11.25;;;2.40;;
65033;SDS011;51601;51.356;12.458;2023-11-19T16:54:00;11.50;;;2.10;;
65033;SDS011;51601;51.356;12.458;2023-11-19T16:58:19;13.10;;;2.53;;
65033;SDS011;51601;51.356;12.458;2023-11-19T17:02:41;7.50;;;2.03;;
65033;SDS011;51601;51.356;12.458;2023-11-19T17:07:01;10.77;;;2.10;;
65033;SDS011;51601;51.356;12.458;2023-11-19T17:11:19;15.97;;;3.53;;
65033;SDS011;51601;51.356;12.458;2023-11-19T17:15:37;6.63;;;1.80;;
65033;SDS011;51601;51.356;12.458;2023-11-19T17:19:56;7.53;;;2.08;;
65033;SDS011;51601;51.356;12.458;2023-11-19T17:24:16;9.48;;;2.20;;
65033;SDS011;51601;51.356;12.458;2023-11-19T17:28:34;9.73;;;2.13;;
65033;SDS011;51601;51.356;12.458;2023-11-19T17:32:55;10.32;;;2.35;;
65033;SDS011;51601;51.356;12.458;2023-11-19T17:37:14;9.88;;;2.22;;
65033;SDS011;51601;51.356;12.458;2023-11-19T17:41:34;10.13;;;2.13;;
65033;SDS011;51601;51.356;12.458;2023-11-19T17:45:53;9.75;;;2.35;;
65033;SDS011;51601;51.356;12.458;2023-11-19T17:50:17;10.88;;;2.00;;
65033;SDS011;51601;51.356;12.458;2023-11-19T17:54:44;11.33;;;2.07;;
65033;SDS011;51601;51.356;12.458;2023-11-19T17:59:02;9.65;;;2.13;;
65033;SDS011;51601;51.356;12.458;2023-11-19T18:03:20;6.05;;;1.88;;
65033;SDS011;51601;51.356;12.458;2023-11-19T18:07:38;14.52;;;2.80;;
65033;SDS011;51601;51.356;12.458;2023-11-19T18:11:57;11.83;;;2.40;;
65033;SDS011;51601;51.356;12.458;2023-11-19T18:16:29;12.45;;;2.00;;
65033;SDS011;51601;51.356;12.458;2023-11-19T18:20:47;10.18;;;2.33;;
65033;SDS011;51601;51.356;12.458;2023-11-19T18:25:06;8.50;;;2.30;;
65033;SDS011;51601;51.356;12.458;2023-11-19T18:29:28;10.48;;;1.95;;
65033;SDS011;51601;51.356;12.458;2023-11-19T18:33:48;10.38;;;1.85;;
65033;SDS011;51601;51.356;12.458;2023-11-19T18:38:06;8.73;;;2.17;;
65033;SDS011;51601;51.356;12.458;2023-11-19T18:42:27;8.05;;;1.98;;
65033;SDS011;51601;51.356;12.458;2023-11-19T18:46:46;12.88;;;2.25;;
65033;SDS011;51601;51.356;12.458;2023-11-19T18:51:07;9.02;;;2.55;;
65033;SDS011;51601;51.356;12.458;2023-11-19T18:55:30;8.17;;;1.40;;
65033;SDS011;51601;51.356;12.458;2023-11-19T18:59:48;7.80;;;1.45;;
65033;SDS011;51601;51.356;12.458;2023-11-19T19:04:11;5.63;;;1.60;;
65033;SDS011;51601;51.356;12.458;2023-11-19T19:08:31;7.53;;;1.73;;
65033;SDS011;51601;51.356;12.458;2023-11-19T19:12:49;10.50;;;1.50;;
65033;SDS011;51601;51.356;12.458;2023-11-19T19:17:07;8.90;;;1.65;;
65033;SDS011;51601;51.356;12.458;2023-11-19T19:21:30;7.30;;;1.50;;
65033;SDS011;51601;51.356;12.458;2023-11-19T19:25:49;7.03;;;1.63;;
65033;SDS011;51601;51.356;12.458;2023-11-19T19:30:11;8.30;;;1.83;;
65033;SDS011;51601;51.356;12.458;2023-11-19T19:34:28;7.70;;;1.83;;
65033;SDS011;51601;51.356;12.458;2023-11-19T19:38:48;6.50;;;1.40;;
65033;SDS011;51601;51.356;12.458;2023-11-19T19:43:04;7.38;;;2.00;;
65033;SDS011;51601;51.356;12.458;2023-11-19T19:47:26;5.40;;;1.38;;
65033;SDS011;51601;51.356;12.458;2023-11-19T19:51:47;6.37;;;1.80;;
65033;SDS011;51601;51.356;12.458;2023-11-19T19:56:06;6.80;;;1.55;;
65033;SDS011;51601;51.356;12.458;2023-11-19T20:00:26;9.32;;;2.00;;
65033;SDS011;51601;51.356;12.458;2023-11-19T20:04:47;8.03;;;1.53;;
65033;SDS011;51601;51.356;12.458;2023-11-19T20:09:08;9.13;;;1.73;;
65033;SDS011;51601;51.356;12.458;2023-11-19T20:13:31;10.57;;;1.92;;
65033;SDS011;51601;51.356;12.458;2023-11-19T20:17:50;7.28;;;1.40;;
65033;SDS011;51601;51.356;12.458;2023-11-19T20:22:08;6.30;;;1.40;;
65033;SDS011;51601;51.356;12.458;2023-11-19T20:26:29;6.28;;;1.23;;
65033;SDS011;51601;51.356;12.458;2023-11-19T20:30:49;5.45;;;1.60;;
65033;SDS011;51601;51.356;12.458;2023-11-19T20:35:09;10.23;;;2.00;;
65033;SDS011;51601;51.356;12.458;2023-11-19T20:39:27;8.57;;;1.38;;
65033;SDS011;51601;51.356;12.458;2023-11-19T20:43:45;9.52;;;2.00;;
65033;SDS011;51601;51.356;12.458;2023-11-19T20:48:04;5.53;;;1.50;;
65033;SDS011;51601;51.356;12.458;2023-11-19T20:52:25;11.52;;;1.40;;
65033;SDS011;51601;51.356;12.458;2023-11-19T20:56:42;7.25;;;1.77;;
65033;SDS011;51601;51.356;12.458;2023-11-19T21:01:00;12.48;;;2.83;;
65033;SDS011;51601;51.356;12.458;2023-11-19T21:05:19;6.80;;;1.60;;
65033;SDS011;51601;51.356;12.458;2023-11-19T21:09:39;10.82;;;1.70;;
65033;SDS011;51601;51.356;12.458;2023-11-19T21:13:58;8.43;;;1.65;;
65033;SDS011;51601;51.356;12.458;2023-11-19T21:18:15;9.33;;;1.90;;
65033;SDS011;51601;51.356;12.458;2023-11-19T21:22:36;5.70;;;1.20;;
65033;SDS011;51601;51.356;12.458;2023-11-19T21:26:54;4.50;;;1.65;;
65033;SDS011;51601;51.356;12.458;2023-11-19T21:31:13;6.53;;;1.73;;
65033;SDS011;51601;51.356;12.458;2023-11-19T21:35:34;9.77;;;2.00;;
65033;SDS011;51601;51.356;12.458;2023-11-19T21:39:56;9.13;;;1.85;;
65033;SDS011;51601;51.356;12.458;2023-11-19T21:44:16;10.95;;;1.95;;
65033;SDS011;51601;51.356;12.458;2023-11-19T21:48:36;8.20;;;1.93;;
65033;SDS011;51601;51.356;12.458;2023-11-19T21:52:56;12.50;;;2.35;;
65033;SDS011;51601;51.356;12.458;2023-11-19T21:57:20;8.48;;;1.85;;
65033;SDS011;51601;51.356;12.458;2023-11-19T22:01:41;6.07;;;1.70;;
65033;SDS011;51601;51.356;12.458;2023-11-19T22:05:59;15.63;;;1.80;;
65033;SDS011;51601;51.356;12.458;2023-11-19T22:10:20;8.77;;;1.50;;
65033;SDS011;51601;51.356;12.458;2023-11-19T22:14:39;7.03;;;1.63;;
65033;SDS011;51601;51.356;12.458;2023-11-19T22:18:59;8.80;;;1.65;;
65033;SDS011;51601;51.356;12.458;2023-11-19T22:23:17;7.75;;;1.50;;
65033;SDS011;51601;51.356;12.458;2023-11-19T22:27:35;7.55;;;1.83;;
65033;SDS011;51601;51.356;12.458;2023-11-19T22:31:54;9.70;;;2.03;;
65033;SDS011;51601;51.356;12.458;2023-11-19T22:36:14;11.90;;;2.38;;
65033;SDS011;51601;51.356;12.458;2023-11-19T22:40:32;11.48;;;1.90;;
65033;SDS011;51601;51.356;12.458;2023-11-19T22:44:50;8.87;;;2.10;;
65033;SDS011;51601;51.356;12.458;2023-11-19T22:49:10;6.47;;;1.58;;
65033;SDS011;51601;51.356;12.458;2023-11-19T22:53:26;6.38;;;1.85;;
65033;SDS011;51601;51.356;12.458;2023-11-19T22:57:44;8.17;;;1.67;;
65033;SDS011;51601;51.356;12.458;2023-11-19T23:02:09;8.02;;;1.80;;
65033;SDS011;51601;51.356;12.458;2023-11-19T23:06:28;10.05;;;1.85;;
65033;SDS011;51601;51.356;12.458;2023-11-19T23:10:48;10.88;;;1.58;;
65033;SDS011;51601;51.356;12.458;2023-11-19T23:15:06;9.93;;;2.17;;
65033;SDS011;51601;51.356;12.458;2023-11-19T23:19:32;9.07;;;1.70;;
65033;SDS011;51601;51.356;12.458;2023-11-19T23:23:53;13.95;;;2.03;;
65033;SDS011;51601;51.356;12.458;2023-11-19T23:28:09;12.27;;;2.37;;
65033;SDS011;51601;51.356;12.458;2023-11-19T23:32:27;9.77;;;1.98;;
65033;SDS011;51601;51.356;12.458;2023-11-19T23:36:45;7.95;;;1.60;;
65033;SDS011;51601;51.356;12.458;2023-11-19T23:41:05;8.97;;;1.63;;
65033;SDS011;51601;51.356;12.458;2023-11-19T23:45:25;11.15;;;1.90;;
65033;SDS011;51601;51.356;12.458;2023-11-19T23:49:43;9.43;;;1.83;;
65033;SDS011;51601;51.356;12.458;2023-11-19T23:54:01;6.03;;;1.63;;
65033;SDS011;51601;51.356;12.458;2023-11-19T23:58:20;10.27;;;1.77;;
